createdAt,value
2022-08-07T00:01:44.306Z,59.50
2022-08-07T00:04:09.677Z,59.50
2022-08-07T00:06:51.120Z,59.50
2022-08-07T00:09:21.223Z,59.50
2022-08-07T00:11:55.959Z,59.50
2022-08-07T00:14:31.207Z,59.40
2022-08-07T00:17:02.913Z,59.50
2022-08-07T00:20:00.399Z,59.60
2022-08-07T00:22:24.937Z,59.60
2022-08-07T00:25:11.054Z,59.30
2022-08-07T00:27:52.395Z,59.30
2022-08-07T00:30:27.526Z,59.60
2022-08-07T00:32:59.582Z,59.70
2022-08-07T00:35:27.629Z,59.50
2022-08-07T00:37:57.900Z,59.70
2022-08-07T00:40:39.111Z,59.50
2022-08-07T00:43:59.315Z,59.50
2022-08-07T00:46:00.241Z,59.60
2022-08-07T00:48:32.060Z,59.70
2022-08-07T00:51:00.395Z,59.70
2022-08-07T00:53:27.612Z,59.60
2022-08-07T00:56:13.743Z,59.50
2022-08-07T00:58:46.760Z,59.70
2022-08-07T01:01:15.300Z,59.70
2022-08-07T01:03:56.509Z,59.60
2022-08-07T01:06:28.390Z,59.60
2022-08-07T01:08:58.388Z,59.70
2022-08-07T01:12:08.979Z,59.80
2022-08-07T01:14:15.449Z,60.40
2022-08-07T01:16:47.173Z,60.20
2022-08-07T01:19:19.218Z,60.10
2022-08-07T01:21:53.275Z,60.00
2022-08-07T01:24:24.752Z,59.90
2022-08-07T01:26:53.837Z,60.00
2022-08-07T01:29:27.789Z,60.10
2022-08-07T01:31:56.064Z,60.70
2022-08-07T01:34:31.675Z,61.10
2022-08-07T01:37:02.146Z,60.60
2022-08-07T01:39:39.715Z,60.70
2022-08-07T01:42:40.292Z,60.80
2022-08-07T01:45:10.051Z,60.80
2022-08-07T01:48:20.585Z,60.60
2022-08-07T01:50:31.163Z,61.00
2022-08-07T01:53:00.066Z,60.80
2022-08-07T01:55:33.415Z,60.90
2022-08-07T01:58:06.569Z,61.00
2022-08-07T02:00:57.982Z,61.00
2022-08-07T02:03:50.209Z,61.40
2022-08-07T02:06:30.768Z,61.30
2022-08-07T02:09:04.342Z,61.30
2022-08-07T02:12:03.055Z,61.10
2022-08-07T02:14:40.321Z,61.40
2022-08-07T02:17:26.504Z,61.40
2022-08-07T02:20:07.267Z,61.50
2022-08-07T02:22:46.341Z,61.80
2022-08-07T02:25:18.051Z,61.80
2022-08-07T02:27:56.645Z,61.80
2022-08-07T02:30:25.246Z,61.90
2022-08-07T02:33:00.599Z,62.00
2022-08-07T02:36:30.963Z,61.90
2022-08-07T02:38:32.279Z,61.90
2022-08-07T02:41:03.656Z,61.90
2022-08-07T02:43:35.157Z,62.10
2022-08-07T02:46:07.329Z,62.10
2022-08-07T02:48:35.671Z,62.20
2022-08-07T02:51:28.919Z,62.20
2022-08-07T02:54:02.876Z,62.20
2022-08-07T02:56:33.020Z,62.10
2022-08-07T02:59:04.665Z,62.10
2022-08-07T03:01:36.009Z,62.10
2022-08-07T03:04:12.487Z,62.20
2022-08-07T03:06:46.129Z,62.20
2022-08-07T03:09:43.559Z,62.30
2022-08-07T03:12:06.847Z,62.30
2022-08-07T03:14:37.633Z,62.10
2022-08-07T03:17:08.701Z,62.10
2022-08-07T03:19:36.960Z,62.40
2022-08-07T03:22:06.761Z,62.40
2022-08-07T03:24:34.417Z,62.40
2022-08-07T03:27:09.101Z,62.60
2022-08-07T03:29:51.228Z,62.50
2022-08-07T03:32:29.602Z,62.60
2022-08-07T03:35:17.103Z,62.50
2022-08-07T03:37:55.245Z,62.70
2022-08-07T03:40:31.234Z,62.60
2022-08-07T03:43:10.075Z,62.80
2022-08-07T03:45:47.771Z,62.90
2022-08-07T03:48:18.190Z,62.90
2022-08-07T03:50:56.094Z,62.90
2022-08-07T03:54:06.000Z,62.90
2022-08-07T03:56:33.443Z,62.90
2022-08-07T03:59:09.803Z,62.90
2022-08-07T04:01:45.434Z,63.20
2022-08-07T04:04:17.277Z,63.00
2022-08-07T04:06:46.122Z,63.10
2022-08-07T04:09:19.313Z,63.20
2022-08-07T04:12:23.354Z,63.10
2022-08-07T04:14:43.811Z,63.10
2022-08-07T04:17:20.067Z,63.20
2022-08-07T04:19:54.884Z,63.20
2022-08-07T04:22:27.583Z,63.30
2022-08-07T04:25:01.585Z,63.30
2022-08-07T04:27:35.951Z,63.40
2022-08-07T04:30:21.318Z,63.30
2022-08-07T04:33:07.209Z,63.30
2022-08-07T04:35:39.032Z,63.30
2022-08-07T04:38:13.065Z,63.40
2022-08-07T04:40:51.812Z,63.40
2022-08-07T04:44:10.430Z,63.50
2022-08-07T04:46:34.669Z,63.60
2022-08-07T04:49:38.657Z,63.70
2022-08-07T04:52:36.233Z,63.70
2022-08-07T04:58:14.632Z,63.80
2022-08-07T04:58:49.675Z,63.70
2022-08-07T05:01:32.339Z,63.80
2022-08-07T05:04:18.426Z,63.60
2022-08-07T05:07:09.585Z,63.70
2022-08-07T05:09:59.088Z,63.90
2022-08-07T05:12:51.510Z,63.90
2022-08-07T05:15:31.254Z,63.90
2022-08-07T05:18:08.646Z,63.80
2022-08-07T05:20:46.647Z,63.50
2022-08-07T05:23:20.433Z,63.70
2022-08-07T05:26:13.377Z,63.50
2022-08-07T05:28:48.562Z,63.60
2022-08-07T05:31:21.999Z,63.50
2022-08-07T05:34:04.252Z,63.60
2022-08-07T05:36:36.829Z,63.70
2022-08-07T05:40:06.439Z,63.60
2022-08-07T05:42:05.351Z,63.80
2022-08-07T05:44:46.401Z,63.50
2022-08-07T05:47:19.898Z,63.60
2022-08-07T05:49:51.069Z,63.40
2022-08-07T05:52:20.665Z,63.30
2022-08-07T05:55:02.969Z,63.40
2022-08-07T05:57:42.308Z,63.40
2022-08-07T06:00:16.436Z,63.30
2022-08-07T06:02:53.088Z,63.30
2022-08-07T06:05:28.217Z,63.10
2022-08-07T06:08:13.469Z,63.00
2022-08-07T06:10:51.297Z,63.10
2022-08-07T06:13:19.758Z,63.00
2022-08-07T06:16:08.654Z,62.90
2022-08-07T06:18:39.792Z,63.00
2022-08-07T06:22:14.804Z,63.50
2022-08-07T06:24:52.288Z,63.50
2022-08-07T06:26:46.290Z,63.10
2022-08-07T06:29:14.195Z,63.30
2022-08-07T06:31:50.191Z,63.20
2022-08-07T06:34:20.787Z,63.10
2022-08-07T06:36:51.855Z,63.00
2022-08-07T06:40:13.336Z,63.10
2022-08-07T06:42:32.806Z,63.10
2022-08-07T06:45:23.532Z,63.00
2022-08-07T06:47:59.312Z,63.00
2022-08-07T06:50:47.757Z,62.90
2022-08-07T06:55:30.316Z,62.90
2022-08-07T06:56:15.099Z,63.00
2022-08-07T07:00:14.210Z,63.00
2022-08-07T07:01:43.726Z,63.00
2022-08-07T07:04:28.473Z,62.90
2022-08-07T07:07:02.237Z,63.10
2022-08-07T07:09:31.691Z,62.80
2022-08-07T07:12:19.617Z,62.90
2022-08-07T07:15:23.510Z,62.90
2022-08-07T07:18:47.164Z,63.20
2022-08-07T07:21:19.380Z,62.90
2022-08-07T07:24:08.993Z,63.10
2022-08-07T07:26:37.849Z,62.90
2022-08-07T07:29:57.527Z,62.90
2022-08-07T07:32:08.514Z,62.90
2022-08-07T07:34:38.452Z,62.90
2022-08-07T07:37:22.022Z,62.70
2022-08-07T07:39:58.857Z,62.70
2022-08-07T07:42:32.921Z,62.60
2022-08-07T07:45:02.502Z,62.50
2022-08-07T07:47:51.892Z,62.20
2022-08-07T07:50:35.566Z,62.30
2022-08-07T07:53:20.401Z,62.40
2022-08-07T07:55:57.814Z,62.30
2022-08-07T07:58:37.084Z,62.20
2022-08-07T08:02:03.251Z,61.80
2022-08-07T08:04:06.132Z,62.10
2022-08-07T08:06:40.707Z,61.50
2022-08-07T08:09:23.011Z,61.70
2022-08-07T08:12:02.507Z,61.40
2022-08-07T08:14:34.437Z,61.20
2022-08-07T08:17:55.895Z,61.20
2022-08-07T08:20:22.312Z,61.30
2022-08-07T08:23:14.377Z,60.50
2022-08-07T08:26:06.975Z,60.60
2022-08-07T08:28:39.226Z,60.70
2022-08-07T08:31:22.972Z,60.40
2022-08-07T08:33:58.936Z,60.10
2022-08-07T08:36:29.686Z,60.10
2022-08-07T08:39:02.225Z,60.00
2022-08-07T08:41:57.573Z,60.30
2022-08-07T08:44:29.290Z,59.90
2022-08-07T08:47:17.342Z,59.70
2022-08-07T08:50:02.565Z,59.80
2022-08-07T08:52:57.586Z,59.80
2022-08-07T08:55:55.238Z,59.40
2022-08-07T08:59:00.263Z,59.40
2022-08-07T09:01:50.554Z,59.10
2022-08-07T09:04:44.519Z,58.70
2022-08-07T09:07:23.058Z,58.40
2022-08-07T09:10:16.391Z,58.50
2022-08-07T09:13:11.729Z,59.10
2022-08-07T09:16:21.840Z,58.60
2022-08-07T09:19:50.748Z,58.40
2022-08-07T09:24:30.994Z,58.70
2022-08-07T09:25:24.570Z,57.70
2022-08-07T09:28:00.112Z,57.70
2022-08-07T09:30:35.091Z,58.00
2022-08-07T09:33:57.603Z,58.20
2022-08-07T09:36:36.925Z,58.30
2022-08-07T09:39:52.956Z,57.60
2022-08-07T09:42:45.457Z,57.70
2022-08-07T09:47:26.192Z,57.50
2022-08-07T09:49:02.550Z,56.70
2022-08-07T09:52:15.955Z,56.20
2022-08-07T09:55:29.601Z,56.70
2022-08-07T09:58:32.198Z,56.00
2022-08-07T10:01:53.806Z,56.30
2022-08-07T10:04:46.194Z,56.30
2022-08-07T10:07:56.295Z,57.10
2022-08-07T10:11:59.944Z,56.70
2022-08-07T10:14:06.955Z,56.30
2022-08-07T10:16:59.737Z,56.10
2022-08-07T10:19:55.133Z,55.20
2022-08-07T10:22:33.905Z,55.60
2022-08-07T10:25:22.764Z,55.20
2022-08-07T10:27:58.801Z,55.00
2022-08-07T10:31:11.149Z,54.70
2022-08-07T10:34:06.331Z,53.70
2022-08-07T10:36:51.965Z,54.40
2022-08-07T10:39:22.477Z,54.30
2022-08-07T10:42:09.677Z,53.60
2022-08-07T10:45:02.986Z,53.50
2022-08-07T10:47:53.296Z,53.60
2022-08-07T10:50:44.852Z,53.00
2022-08-07T10:53:44.086Z,52.60
2022-08-07T10:56:35.205Z,52.90
2022-08-07T10:59:36.990Z,52.60
2022-08-07T11:02:34.024Z,53.10
2022-08-07T11:05:19.514Z,52.80
2022-08-07T11:08:30.239Z,51.50
2022-08-07T11:11:08.893Z,51.00
2022-08-07T11:14:44.523Z,51.90
2022-08-07T11:17:01.739Z,52.00
2022-08-07T11:19:55.706Z,52.00
2022-08-07T11:22:37.089Z,52.30
2022-08-07T11:25:27.615Z,51.90
2022-08-07T11:28:04.783Z,51.10
2022-08-07T11:30:42.658Z,51.60
2022-08-07T11:33:59.548Z,52.00
2022-08-07T11:37:02.914Z,51.00
2022-08-07T11:39:59.303Z,51.00
2022-08-07T11:42:30.267Z,51.00
2022-08-07T11:44:59.892Z,51.50
2022-08-07T11:48:17.975Z,52.30
2022-08-07T11:51:09.020Z,50.90
2022-08-07T11:54:00.697Z,51.10
2022-08-07T11:56:40.953Z,51.00
2022-08-07T12:00:12.183Z,50.90
2022-08-07T12:03:44.910Z,52.10
2022-08-07T12:06:37.101Z,51.80
2022-08-07T12:09:23.331Z,50.90
2022-08-07T12:12:12.786Z,51.30
2022-08-07T12:15:17.192Z,50.10
2022-08-07T12:18:11.698Z,50.00
2022-08-07T12:20:49.282Z,51.10
2022-08-07T12:24:05.982Z,50.90
2022-08-07T12:26:34.450Z,51.00
2022-08-07T12:29:38.466Z,51.50
2022-08-07T12:32:30.858Z,50.80
2022-08-07T12:35:02.142Z,51.00
2022-08-07T12:38:09.600Z,50.40
2022-08-07T12:40:48.907Z,49.90
2022-08-07T12:44:04.552Z,51.00
2022-08-07T12:46:34.759Z,50.90
2022-08-07T12:49:48.929Z,50.10
2022-08-07T12:52:19.359Z,50.70
2022-08-07T12:55:09.670Z,50.40
2022-08-07T12:58:00.539Z,50.70
2022-08-07T13:00:54.206Z,49.90
2022-08-07T13:03:56.028Z,50.40
2022-08-07T13:06:37.153Z,50.30
2022-08-07T13:10:19.879Z,50.60
2022-08-07T13:12:37.512Z,50.70
2022-08-07T13:15:31.559Z,49.80
2022-08-07T13:18:06.615Z,49.70
2022-08-07T13:20:44.491Z,50.40
2022-08-07T13:24:00.553Z,50.00
2022-08-07T13:26:20.016Z,50.20
2022-08-07T13:28:58.824Z,51.30
2022-08-07T13:31:57.604Z,50.60
2022-08-07T13:34:44.588Z,50.80
2022-08-07T13:37:40.657Z,49.50
2022-08-07T13:40:41.810Z,49.40
2022-08-07T13:43:15.283Z,49.30
2022-08-07T13:46:12.376Z,49.60
2022-08-07T13:48:38.602Z,49.70
2022-08-07T13:51:28.520Z,49.30
2022-08-07T13:54:02.113Z,48.90
2022-08-07T13:56:36.405Z,49.30
2022-08-07T13:59:31.290Z,49.30
2022-08-07T14:02:12.950Z,48.40
2022-08-07T14:04:54.756Z,49.50
2022-08-07T14:07:27.568Z,49.40
2022-08-07T14:10:16.467Z,49.50
2022-08-07T14:12:58.550Z,49.00
2022-08-07T14:15:39.604Z,48.70
2022-08-07T14:18:28.337Z,48.40
2022-08-07T14:21:20.976Z,48.80
2022-08-07T14:24:03.707Z,49.50
2022-08-07T14:26:38.139Z,48.40
2022-08-07T14:30:07.653Z,48.70
2022-08-07T14:32:01.156Z,48.30
2022-08-07T14:34:30.912Z,48.20
2022-08-07T14:37:03.520Z,49.00
2022-08-07T14:40:15.466Z,48.40
2022-08-07T14:42:26.246Z,48.00
2022-08-07T14:44:59.952Z,49.00
2022-08-07T14:47:44.843Z,49.20
2022-08-07T14:50:19.116Z,49.60
2022-08-07T14:52:50.372Z,48.70
2022-08-07T14:55:19.805Z,49.80
2022-08-07T14:58:02.497Z,50.40
2022-08-07T15:00:34.273Z,49.10
2022-08-07T15:03:16.693Z,49.10
2022-08-07T15:08:50.246Z,48.30
2022-08-07T15:11:48.899Z,48.90
2022-08-07T15:14:22.665Z,49.70
2022-08-07T15:17:00.810Z,49.30
2022-08-07T15:22:23.156Z,49.90
2022-08-07T15:31:04.905Z,48.40
2022-08-07T15:33:36.072Z,49.00
2022-08-07T15:36:05.731Z,48.90
2022-08-07T15:38:58.907Z,49.30
2022-08-07T15:44:17.129Z,49.80
2022-08-07T15:46:52.768Z,49.80
2022-08-07T15:50:05.399Z,50.20
2022-08-07T15:52:30.620Z,49.40
2022-08-07T15:55:03.403Z,49.80
2022-08-07T15:57:47.347Z,49.60
2022-08-07T16:00:31.528Z,49.70
2022-08-07T16:03:22.193Z,50.20
2022-08-07T16:05:56.253Z,49.60
2022-08-07T16:08:32.501Z,50.00
2022-08-07T16:11:26.472Z,49.30
2022-08-07T16:14:06.837Z,49.90
2022-08-07T16:16:57.243Z,50.90
2022-08-07T16:19:59.811Z,50.30
2022-08-07T16:22:36.288Z,50.30
2022-08-07T16:25:54.692Z,50.20
2022-08-07T16:30:06.723Z,50.10
2022-08-07T16:31:50.174Z,50.60
2022-08-07T16:34:26.397Z,49.80
2022-08-07T16:37:02.466Z,49.80
2022-08-07T16:39:57.746Z,50.70
2022-08-07T16:42:58.527Z,51.30
2022-08-07T16:46:33.017Z,50.10
2022-08-07T16:50:28.561Z,50.50
2022-08-07T16:52:52.533Z,50.30
2022-08-07T16:55:28.283Z,50.90
2022-08-07T16:59:10.163Z,50.50
2022-08-07T17:01:55.574Z,50.30
2022-08-07T17:04:50.962Z,50.70
2022-08-07T17:07:55.636Z,51.10
2022-08-07T17:10:54.978Z,51.20
2022-08-07T17:14:17.351Z,50.50
2022-08-07T17:16:33.353Z,50.90
2022-08-07T17:20:02.015Z,51.10
2022-08-07T17:22:30.044Z,50.90
2022-08-07T17:25:12.417Z,51.00
2022-08-07T17:27:50.945Z,51.40
2022-08-07T17:30:20.456Z,51.80
2022-08-07T17:34:09.558Z,51.20
2022-08-07T17:35:56.699Z,51.70
2022-08-07T17:38:33.657Z,50.90
2022-08-07T17:42:02.700Z,51.10
2022-08-07T17:44:33.678Z,51.60
2022-08-07T17:47:38.485Z,51.80
2022-08-07T17:50:16.430Z,51.50
2022-08-07T17:52:51.458Z,51.80
2022-08-07T17:55:55.611Z,52.70
2022-08-07T17:58:35.424Z,51.90
2022-08-07T18:01:21.592Z,51.80
2022-08-07T18:04:24.696Z,51.50
2022-08-07T18:07:20.321Z,51.70
2022-08-07T18:10:05.834Z,52.30
2022-08-07T18:12:59.060Z,52.40
2022-08-07T18:15:32.919Z,52.60
2022-08-07T18:18:46.176Z,52.50
2022-08-07T18:21:37.068Z,52.10
2022-08-07T18:23:59.442Z,54.00
2022-08-07T18:26:59.927Z,53.10
2022-08-07T18:30:08.388Z,52.20
2022-08-07T18:33:12.019Z,52.40
2022-08-07T18:35:55.805Z,52.60
2022-08-07T18:38:57.673Z,53.70
2022-08-07T18:41:53.844Z,53.40
2022-08-07T18:45:40.257Z,53.40
2022-08-07T18:48:01.161Z,53.50
2022-08-07T18:50:47.168Z,53.20
2022-08-07T18:53:54.252Z,53.30
2022-08-07T18:57:23.264Z,53.50
2022-08-07T19:00:04.266Z,53.80
2022-08-07T19:03:12.065Z,53.90
2022-08-07T19:06:03.574Z,54.10
2022-08-07T19:08:43.267Z,54.10
2022-08-07T19:11:35.764Z,54.40
2022-08-07T19:14:20.206Z,54.30
2022-08-07T19:17:07.832Z,54.60
2022-08-07T19:20:04.841Z,54.60
2022-08-07T19:23:18.629Z,54.70
2022-08-07T19:26:23.436Z,54.90
2022-08-07T19:30:54.441Z,54.90
2022-08-07T19:31:59.740Z,55.00
2022-08-07T19:34:32.598Z,55.00
2022-08-07T19:37:09.898Z,55.30
2022-08-07T19:39:57.562Z,55.50
2022-08-07T19:42:31.327Z,56.10
2022-08-07T19:45:09.381Z,56.50
2022-08-07T19:47:41.891Z,56.70
2022-08-07T19:50:43.192Z,56.30
2022-08-07T19:52:58.441Z,56.40
2022-08-07T19:55:57.987Z,56.90
2022-08-07T19:58:22.141Z,57.10
2022-08-07T20:00:57.765Z,57.30
2022-08-07T20:03:35.296Z,57.40
2022-08-07T20:06:05.017Z,57.50
2022-08-07T20:08:35.613Z,57.50
2022-08-07T20:11:10.078Z,57.60
2022-08-07T20:13:47.386Z,57.50
2022-08-07T20:16:35.969Z,57.40
2022-08-07T20:19:06.058Z,57.20
2022-08-07T20:21:42.273Z,57.30
2022-08-07T20:24:30.269Z,57.20
2022-08-07T20:27:01.801Z,57.40
2022-08-07T20:29:48.737Z,57.60
2022-08-07T20:32:39.647Z,57.30
2022-08-07T20:35:12.556Z,57.40
2022-08-07T20:37:58.271Z,57.50
2022-08-07T20:40:32.641Z,57.60
2022-08-07T20:43:02.007Z,57.40
2022-08-07T20:46:28.565Z,57.40
2022-08-07T20:48:28.987Z,57.90
2022-08-07T20:51:00.535Z,58.20
2022-08-07T20:54:04.784Z,58.50
2022-08-07T20:56:26.048Z,58.40
2022-08-07T20:58:55.825Z,58.60
2022-08-07T21:01:29.758Z,58.70
2022-08-07T21:04:22.064Z,58.60
2022-08-07T21:06:53.652Z,58.70
2022-08-07T21:09:24.387Z,59.00
2022-08-07T21:11:57.033Z,59.00
2022-08-07T21:14:32.756Z,59.20
2022-08-07T21:18:00.692Z,59.30
2022-08-07T21:20:05.112Z,59.40
2022-08-07T21:23:07.347Z,59.60
2022-08-07T21:25:58.421Z,59.80
2022-08-07T21:28:48.941Z,59.60
2022-08-07T21:32:42.523Z,59.60
2022-08-07T21:34:57.408Z,60.00
2022-08-07T21:37:57.938Z,60.00
2022-08-07T21:40:49.862Z,60.00
2022-08-07T21:43:36.659Z,60.10
2022-08-07T21:46:56.422Z,60.00
2022-08-07T21:50:02.239Z,60.00
2022-08-07T21:52:40.108Z,60.00
2022-08-07T21:55:28.171Z,60.00
2022-08-07T21:58:30.558Z,60.00
2022-08-07T22:01:13.799Z,60.80
2022-08-07T22:04:00.529Z,60.80
2022-08-07T22:07:00.989Z,60.70
2022-08-07T22:09:31.501Z,61.00
2022-08-07T22:12:31.417Z,60.80
2022-08-07T22:15:02.661Z,60.80
2022-08-07T22:18:01.968Z,60.70
2022-08-07T22:20:48.555Z,61.00
2022-08-07T22:24:01.422Z,61.00
2022-08-07T22:26:56.474Z,61.40
2022-08-07T22:29:48.494Z,62.80
2022-08-07T22:32:38.591Z,62.90
2022-08-07T22:35:11.205Z,62.60
2022-08-07T22:38:04.324Z,62.20
2022-08-07T22:40:52.752Z,62.00
2022-08-07T22:43:41.292Z,61.90
2022-08-07T22:47:02.301Z,61.60
2022-08-07T22:49:42.812Z,61.80
2022-08-07T22:52:37.702Z,61.60
2022-08-07T22:55:42.773Z,61.60
2022-08-07T22:58:48.662Z,61.70
2022-08-07T23:01:22.004Z,61.80
2022-08-07T23:04:30.024Z,61.80
2022-08-07T23:07:33.623Z,61.90
2022-08-07T23:10:55.994Z,61.70
2022-08-07T23:14:10.575Z,61.60
2022-08-07T23:17:15.835Z,61.70
2022-08-07T23:20:51.621Z,61.60
2022-08-07T23:23:13.968Z,61.80
2022-08-07T23:26:25.006Z,61.70
2022-08-07T23:29:42.632Z,61.80
2022-08-07T23:34:19.421Z,61.80
2022-08-07T23:35:16.702Z,61.80
2022-08-07T23:38:05.154Z,61.70
2022-08-07T23:40:39.882Z,61.90
2022-08-07T23:43:37.939Z,62.10
2022-08-07T23:46:11.658Z,62.40
2022-08-07T23:49:23.537Z,62.60
2022-08-07T23:52:58.510Z,62.70
2022-08-07T23:55:52.437Z,62.70
2022-08-07T23:58:18.798Z,62.80
